Hart, Missouri
Current Conditions -  °F | °C
As of 11:15 AM on Friday 31 Oct 2014 (Local Time) from KGMJ Reporting Station
Clear Clear  
Wind Chill: 43°   Ceiling: Unl
Heat Index: 48°   Visibility: 10mi
Dew Point: 34°   Wind: 13mph
Humidity: 57%   Direction: 360°N
Pressure: 30.41"   Gusts: 24mph
Location:  36.8382°N, 94.5361°W
Report Text: KGMJ 311615Z AUTO 36011G21KT 10SM CLR 09/01 A3041 RMK AO2
Loading
Personal Weather Stations






























Interactive Weather Map
Tropical Storm Tracking
New forecast layout! Learn more

10-Day Weather Forecast

Advertisements
Track Severe Weather on mobile